createdAt,value
2022-11-14T00:00:15.316Z,58.09
2022-11-14T00:03:19.375Z,57.93
2022-11-14T00:06:23.640Z,57.65
2022-11-14T00:09:29.141Z,57.80
2022-11-14T00:12:34.168Z,57.71
2022-11-14T00:15:38.369Z,57.69
2022-11-14T00:18:42.343Z,57.64
2022-11-14T00:21:46.635Z,57.81
2022-11-14T00:24:50.986Z,57.82
2022-11-14T00:28:01.140Z,57.82
2022-11-14T00:31:06.048Z,57.87
2022-11-14T00:34:11.042Z,57.83
2022-11-14T00:37:15.134Z,58.05
2022-11-14T00:40:19.076Z,57.93
2022-11-14T00:43:23.364Z,58.06
2022-11-14T00:46:27.707Z,58.02
2022-11-14T00:49:31.985Z,58.01
2022-11-14T00:52:36.311Z,58.10
2022-11-14T00:55:41.583Z,58.00
2022-11-14T00:58:45.672Z,58.05
2022-11-14T01:01:52.913Z,58.01
2022-11-14T01:04:59.197Z,58.15
2022-11-14T01:08:03.676Z,58.09
2022-11-14T01:11:16.448Z,58.14
2022-11-14T01:14:20.532Z,58.04
2022-11-14T01:17:25.113Z,58.19
2022-11-14T01:20:29.555Z,58.20
2022-11-14T01:23:33.766Z,58.29
2022-11-14T01:26:37.758Z,58.38
2022-11-14T01:29:42.002Z,58.31
2022-11-14T01:32:46.316Z,58.37
2022-11-14T01:35:50.578Z,58.31
2022-11-14T01:38:55.030Z,58.29
2022-11-14T01:41:59.136Z,58.43
2022-11-14T01:45:42.030Z,58.36
2022-11-14T01:49:23.072Z,58.47
2022-11-14T01:52:31.662Z,58.52
2022-11-14T01:55:35.656Z,58.63
2022-11-14T01:58:44.194Z,58.67
2022-11-14T02:01:50.755Z,58.86
2022-11-14T02:05:03.295Z,58.67
2022-11-14T02:08:13.133Z,58.75
2022-11-14T02:11:17.648Z,58.83
2022-11-14T02:14:22.452Z,58.90
2022-11-14T02:17:29.952Z,58.69
2022-11-14T02:20:38.572Z,58.81
2022-11-14T02:23:42.497Z,58.95
2022-11-14T02:26:46.539Z,59.12
2022-11-14T02:29:50.777Z,59.17
2022-11-14T02:33:10.567Z,59.16
2022-11-14T02:36:15.447Z,59.20
2022-11-14T02:39:19.482Z,59.27
2022-11-14T02:42:23.834Z,59.32
2022-11-14T02:45:28.396Z,59.34
2022-11-14T02:48:32.987Z,59.39
2022-11-14T02:51:37.922Z,59.26
2022-11-14T02:54:41.718Z,59.36
2022-11-14T02:57:45.850Z,59.38
2022-11-14T03:01:18.593Z,59.42
2022-11-14T03:04:14.067Z,59.37
2022-11-14T03:07:18.664Z,59.45
2022-11-14T03:10:23.736Z,59.74
2022-11-14T03:13:30.199Z,59.47
2022-11-14T03:16:34.286Z,59.63
2022-11-14T03:19:38.661Z,59.50
2022-11-14T03:22:42.919Z,59.62
2022-11-14T03:25:47.458Z,59.79
2022-11-14T03:28:51.713Z,59.66
2022-11-14T03:31:55.829Z,59.67
2022-11-14T03:34:59.981Z,59.76
2022-11-14T03:38:04.398Z,59.84
2022-11-14T03:41:08.964Z,59.66
2022-11-14T03:44:13.404Z,59.64
2022-11-14T03:47:17.546Z,59.79
2022-11-14T03:50:21.801Z,59.74
2022-11-14T03:53:26.405Z,59.78
2022-11-14T03:56:30.271Z,59.83
2022-11-14T03:59:34.406Z,59.76
2022-11-14T04:02:38.613Z,59.86
2022-11-14T04:05:46.522Z,60.11
2022-11-14T04:08:51.963Z,60.21
2022-11-14T04:11:56.609Z,60.15
2022-11-14T04:15:00.900Z,60.07
2022-11-14T04:18:05.267Z,60.31
2022-11-14T04:21:09.782Z,60.29
2022-11-14T04:24:14.065Z,60.52
2022-11-14T04:27:18.429Z,60.44
2022-11-14T04:30:22.795Z,60.22
2022-11-14T04:33:30.147Z,60.37
2022-11-14T04:36:34.342Z,60.29
2022-11-14T04:39:38.693Z,60.25
2022-11-14T04:42:43.078Z,60.34
2022-11-14T04:45:47.391Z,60.28
2022-11-14T04:48:53.893Z,60.30
2022-11-14T04:51:58.316Z,60.22
2022-11-14T04:55:02.643Z,60.29
2022-11-14T04:58:06.798Z,60.25
2022-11-14T05:01:13.014Z,60.22
2022-11-14T05:04:17.875Z,60.52
2022-11-14T05:07:22.558Z,60.95
2022-11-14T05:10:27.170Z,61.38
2022-11-14T05:13:31.415Z,62.07
2022-11-14T05:16:35.674Z,61.54
2022-11-14T05:19:40.991Z,61.61
2022-11-14T05:22:45.172Z,61.56
2022-11-14T05:26:04.132Z,61.76
2022-11-14T05:29:08.030Z,61.56
2022-11-14T05:32:16.070Z,61.14
2022-11-14T05:35:21.255Z,60.90
2022-11-14T05:38:25.874Z,60.93
2022-11-14T05:41:30.291Z,60.27
2022-11-14T05:44:34.576Z,59.61
2022-11-14T05:47:38.872Z,59.11
2022-11-14T05:50:42.964Z,58.96
2022-11-14T05:53:47.434Z,59.23
2022-11-14T05:56:51.947Z,59.58
2022-11-14T05:59:56.652Z,59.92
2022-11-14T06:03:00.683Z,59.86
2022-11-14T06:06:07.484Z,59.61
2022-11-14T06:09:11.763Z,59.47
2022-11-14T06:12:15.833Z,59.61
2022-11-14T06:15:20.318Z,59.63
2022-11-14T06:18:24.707Z,58.99
2022-11-14T06:21:28.917Z,59.13
2022-11-14T06:24:32.990Z,59.30
2022-11-14T06:27:37.096Z,59.61
2022-11-14T06:30:41.495Z,59.75
2022-11-14T06:33:46.780Z,59.67
2022-11-14T06:36:50.961Z,59.45
2022-11-14T06:39:55.059Z,59.38
2022-11-14T06:42:59.183Z,59.39
2022-11-14T06:46:04.542Z,58.87
2022-11-14T06:49:08.632Z,58.95
2022-11-14T06:52:12.744Z,58.96
2022-11-14T06:55:20.935Z,59.10
2022-11-14T06:58:30.141Z,59.11
2022-11-14T07:01:34.486Z,59.46
2022-11-14T07:04:38.811Z,59.58
2022-11-14T07:07:43.037Z,59.78
2022-11-14T07:10:47.592Z,59.49
2022-11-14T07:13:55.335Z,59.83
2022-11-14T07:16:59.612Z,59.84
2022-11-14T07:20:04.190Z,59.98
2022-11-14T07:23:08.187Z,60.11
2022-11-14T07:26:12.466Z,60.06
2022-11-14T07:29:17.062Z,60.24
2022-11-14T07:32:21.267Z,60.29
2022-11-14T07:35:26.114Z,60.38
2022-11-14T07:38:34.385Z,60.35
2022-11-14T07:41:38.433Z,60.57
2022-11-14T07:44:42.715Z,60.59
2022-11-14T07:47:47.181Z,60.66
2022-11-14T07:50:51.705Z,60.69
2022-11-14T07:53:55.881Z,60.73
2022-11-14T07:56:59.894Z,60.78
2022-11-14T08:00:04.350Z,59.46
2022-11-14T08:03:08.738Z,60.40
2022-11-14T08:06:17.529Z,60.33
2022-11-14T08:09:23.331Z,60.25
2022-11-14T08:12:27.781Z,60.00
2022-11-14T08:15:32.238Z,60.07
2022-11-14T08:18:36.242Z,59.98
2022-11-14T08:21:40.596Z,60.53
2022-11-14T08:24:45.113Z,60.83
2022-11-14T08:27:49.309Z,60.91
2022-11-14T08:31:02.432Z,60.82
2022-11-14T08:34:07.282Z,60.72
2022-11-14T08:37:11.460Z,60.59
2022-11-14T08:40:15.983Z,60.46
2022-11-14T08:43:20.455Z,60.18
2022-11-14T08:46:24.914Z,60.27
2022-11-14T08:49:29.655Z,60.24
2022-11-14T08:58:31.521Z,60.23
2022-11-14T09:01:36.317Z,60.16
2022-11-14T09:04:40.564Z,59.51
2022-11-14T09:07:44.693Z,59.49
2022-11-14T09:10:48.964Z,59.46
2022-11-14T09:13:53.112Z,59.51
2022-11-14T09:16:59.683Z,59.61
2022-11-14T09:20:08.311Z,59.53
2022-11-14T09:23:12.570Z,59.63
2022-11-14T09:26:18.757Z,59.70
2022-11-14T09:29:22.763Z,59.72
2022-11-14T09:32:27.118Z,59.74
2022-11-14T09:35:32.844Z,59.76
2022-11-14T09:38:38.674Z,59.73
2022-11-14T09:42:35.242Z,59.83
2022-11-14T09:45:47.055Z,59.68
2022-11-14T09:48:52.970Z,60.00
2022-11-14T09:52:25.814Z,60.16
2022-11-14T09:55:36.930Z,60.16
2022-11-14T09:58:42.986Z,60.30
2022-11-14T10:01:53.254Z,60.36
2022-11-14T10:05:35.398Z,60.32
2022-11-14T10:08:49.477Z,59.71
2022-11-14T10:12:08.929Z,60.14
2022-11-14T10:15:20.183Z,60.13
2022-11-14T10:18:30.747Z,60.13
2022-11-14T10:21:51.678Z,60.01
2022-11-14T10:25:22.872Z,59.93
2022-11-14T10:28:42.017Z,59.89
2022-11-14T10:31:55.257Z,59.73
2022-11-14T10:35:16.978Z,59.74
2022-11-14T10:38:32.479Z,59.81
2022-11-14T10:45:15.117Z,60.02
2022-11-14T10:48:33.745Z,60.13
2022-11-14T10:51:43.662Z,60.08
2022-11-14T10:54:56.668Z,60.09
2022-11-14T10:58:01.120Z,59.76
2022-11-14T11:01:58.262Z,59.78
2022-11-14T11:05:18.648Z,59.98
2022-11-14T11:08:43.737Z,59.91
2022-11-14T11:11:58.443Z,59.97
2022-11-14T11:15:14.414Z,60.00
2022-11-14T11:18:36.697Z,60.03
2022-11-14T11:21:49.980Z,59.95
2022-11-14T11:24:54.320Z,60.04
2022-11-14T11:28:17.700Z,59.95
2022-11-14T11:31:21.938Z,60.00
2022-11-14T11:34:32.374Z,60.06
2022-11-14T11:37:44.586Z,60.18
2022-11-14T11:40:52.589Z,60.22
2022-11-14T11:44:02.763Z,60.12
2022-11-14T11:47:15.313Z,60.10
2022-11-14T11:50:21.767Z,59.99
2022-11-14T11:53:34.202Z,60.15
2022-11-14T11:56:40.114Z,58.98
2022-11-14T11:59:49.953Z,59.47
2022-11-14T12:02:54.779Z,59.50
2022-11-14T12:06:08.795Z,59.72
2022-11-14T12:09:15.547Z,59.56
2022-11-14T12:12:52.750Z,59.56
2022-11-14T12:16:23.627Z,59.48
2022-11-14T12:19:52.599Z,59.54
2022-11-14T12:23:18.278Z,59.68
2022-11-14T12:26:56.036Z,59.66
2022-11-14T12:30:24.737Z,59.67
2022-11-14T12:33:38.963Z,59.60
2022-11-14T12:36:45.900Z,59.65
2022-11-14T12:40:05.148Z,59.60
2022-11-14T12:43:36.676Z,59.65
2022-11-14T12:47:07.802Z,59.70
2022-11-14T12:50:31.471Z,59.68
2022-11-14T12:53:40.304Z,59.56
2022-11-14T12:56:56.079Z,59.61
2022-11-14T13:00:07.218Z,59.52
2022-11-14T13:03:43.084Z,59.54
2022-11-14T13:07:02.193Z,59.58
2022-11-14T13:10:29.433Z,59.59
2022-11-14T13:14:18.180Z,59.50
2022-11-14T13:17:46.043Z,58.74
2022-11-14T13:21:21.501Z,59.35
2022-11-14T13:24:25.906Z,59.38
2022-11-14T13:28:00.073Z,59.63
2022-11-14T13:31:15.300Z,60.31
2022-11-14T13:34:47.288Z,59.90
2022-11-14T13:38:25.009Z,59.82
2022-11-14T13:41:48.288Z,59.96
2022-11-14T13:45:25.258Z,60.07
2022-11-14T13:48:32.337Z,60.07
2022-11-14T13:51:43.394Z,59.88
2022-11-14T13:54:49.737Z,59.65
2022-11-14T13:58:15.635Z,59.03
2022-11-14T14:01:29.097Z,58.93
2022-11-14T14:04:54.897Z,59.17
2022-11-14T14:08:12.620Z,59.07
2022-11-14T14:11:41.701Z,59.27
2022-11-14T14:15:01.836Z,59.38
2022-11-14T14:18:12.233Z,59.85
2022-11-14T14:21:37.315Z,59.29
2022-11-14T14:25:01.381Z,58.84
2022-11-14T14:28:11.551Z,59.15
2022-11-14T14:31:20.173Z,59.45
2022-11-14T14:34:31.812Z,59.53
2022-11-14T14:37:36.083Z,59.52
2022-11-14T14:40:42.213Z,59.46
2022-11-14T14:43:55.481Z,59.58
2022-11-14T14:47:15.779Z,59.59
2022-11-14T14:50:35.713Z,59.54
2022-11-14T14:53:40.330Z,59.68
2022-11-14T14:57:00.043Z,59.94
2022-11-14T15:00:08.628Z,59.72
2022-11-14T15:03:12.840Z,59.39
2022-11-14T15:06:29.625Z,59.61
2022-11-14T15:09:34.047Z,58.50
2022-11-14T15:12:41.243Z,58.52
2022-11-14T15:15:45.379Z,58.39
2022-11-14T15:18:51.655Z,58.48
2022-11-14T15:25:02.170Z,58.58
2022-11-14T15:28:16.114Z,58.27
2022-11-14T15:31:21.167Z,58.50
2022-11-14T15:34:27.513Z,58.57
2022-11-14T15:37:33.213Z,58.64
2022-11-14T15:40:39.530Z,58.76
2022-11-14T15:46:36.780Z,58.57
2022-11-14T15:49:53.877Z,58.52
2022-11-14T15:53:06.709Z,58.07
2022-11-14T15:56:13.522Z,58.79
2022-11-14T15:59:18.592Z,58.63
2022-11-14T16:02:28.977Z,58.32
2022-11-14T16:05:33.462Z,58.46
2022-11-14T16:08:38.354Z,58.37
2022-11-14T16:11:42.622Z,58.92
2022-11-14T16:14:47.029Z,58.61
2022-11-14T16:17:50.897Z,58.78
2022-11-14T16:20:59.455Z,58.74
2022-11-14T16:24:04.307Z,58.68
2022-11-14T16:27:08.740Z,58.78
2022-11-14T16:30:14.165Z,58.81
2022-11-14T16:33:18.546Z,58.80
2022-11-14T16:36:23.214Z,58.82
2022-11-14T16:39:27.802Z,58.81
2022-11-14T16:42:32.272Z,58.59
2022-11-14T16:45:41.008Z,58.61
2022-11-14T16:48:45.113Z,58.43
2022-11-14T16:51:50.996Z,58.71
2022-11-14T16:54:55.321Z,58.75
2022-11-14T16:57:59.808Z,58.61
2022-11-14T17:01:06.562Z,58.93
2022-11-14T17:04:12.960Z,58.74
2022-11-14T17:07:22.709Z,58.42
2022-11-14T17:10:27.110Z,58.28
2022-11-14T17:13:32.012Z,58.39
2022-11-14T17:16:36.805Z,58.27
2022-11-14T17:19:46.001Z,58.39
2022-11-14T17:22:50.391Z,58.18
2022-11-14T17:26:01.696Z,58.42
2022-11-14T17:29:06.515Z,58.51
2022-11-14T17:32:10.614Z,58.38
2022-11-14T17:35:15.705Z,58.25
2022-11-14T17:38:19.930Z,58.31
2022-11-14T17:41:25.384Z,58.55
2022-11-14T17:44:29.550Z,58.65
2022-11-14T17:47:34.295Z,58.25
2022-11-14T17:50:39.772Z,58.13
2022-11-14T17:53:43.834Z,58.00
2022-11-14T17:56:53.697Z,58.30
2022-11-14T17:59:59.074Z,57.53
2022-11-14T18:03:04.120Z,54.20
2022-11-14T18:06:10.646Z,55.44
2022-11-14T18:09:14.910Z,56.25
2022-11-14T18:12:19.255Z,56.52
2022-11-14T18:15:27.736Z,56.86
2022-11-14T18:18:34.916Z,57.17
2022-11-14T18:21:40.040Z,57.36
2022-11-14T18:24:47.301Z,58.05
2022-11-14T18:27:51.265Z,57.23
2022-11-14T18:30:56.731Z,57.62
2022-11-14T18:34:02.781Z,57.87
2022-11-14T18:37:07.726Z,57.92
2022-11-14T18:40:16.626Z,57.97
2022-11-14T18:43:21.230Z,57.66
2022-11-14T18:46:26.573Z,57.47
2022-11-14T18:49:30.746Z,57.29
2022-11-14T18:52:34.846Z,57.04
2022-11-14T18:55:40.464Z,57.11
2022-11-14T18:58:45.251Z,56.78
2022-11-14T19:01:49.922Z,56.89
2022-11-14T19:04:54.019Z,57.37
2022-11-14T19:07:58.288Z,57.31
2022-11-14T19:11:34.999Z,57.46
2022-11-14T19:14:39.421Z,57.64
2022-11-14T19:17:43.890Z,57.95
2022-11-14T19:20:58.421Z,58.05
2022-11-14T19:24:03.007Z,58.11
2022-11-14T19:27:07.255Z,58.24
2022-11-14T19:30:11.653Z,58.53
2022-11-14T19:33:15.591Z,58.59
2022-11-14T19:36:52.805Z,58.47
2022-11-14T19:39:46.554Z,58.43
2022-11-14T19:42:53.449Z,58.49
2022-11-14T19:46:02.361Z,58.38
2022-11-14T19:49:07.380Z,58.62
2022-11-14T19:52:11.730Z,58.68
2022-11-14T19:55:15.900Z,58.67
2022-11-14T19:58:20.187Z,58.70
2022-11-14T20:01:27.478Z,58.80
2022-11-14T20:04:36.843Z,58.80
2022-11-14T20:07:42.345Z,59.02
2022-11-14T20:11:12.582Z,59.08
2022-11-14T20:14:18.423Z,59.10
2022-11-14T20:17:22.685Z,59.26
2022-11-14T20:20:27.074Z,59.22
2022-11-14T20:23:31.442Z,59.31
2022-11-14T20:26:36.272Z,59.38
2022-11-14T20:29:40.670Z,59.42
2022-11-14T20:32:44.967Z,59.45
2022-11-14T20:35:49.273Z,59.50
2022-11-14T20:38:53.950Z,59.58
2022-11-14T20:41:58.265Z,59.50
2022-11-14T20:45:02.491Z,59.49
2022-11-14T20:48:06.827Z,59.56
2022-11-14T20:51:18.562Z,59.64
2022-11-14T20:54:22.872Z,59.61
2022-11-14T20:57:27.419Z,59.58
2022-11-14T21:00:31.743Z,59.69
2022-11-14T21:03:36.785Z,59.82
2022-11-14T21:06:40.848Z,59.86
2022-11-14T21:09:45.109Z,59.83
2022-11-14T21:13:09.347Z,59.80
2022-11-14T21:16:19.284Z,59.83
2022-11-14T21:19:24.431Z,59.79
2022-11-14T21:22:28.526Z,59.82
2022-11-14T21:25:32.946Z,59.55
2022-11-14T21:28:40.090Z,59.84
2022-11-14T21:31:45.206Z,59.84
2022-11-14T21:34:49.075Z,59.89
2022-11-14T21:37:53.422Z,59.69
2022-11-14T21:40:57.660Z,59.77
2022-11-14T21:44:03.430Z,59.78
2022-11-14T21:47:07.569Z,59.99
2022-11-14T21:50:11.684Z,59.80
2022-11-14T21:53:16.225Z,59.83
2022-11-14T21:56:26.570Z,59.93
2022-11-14T21:59:31.507Z,59.79
2022-11-14T22:02:54.229Z,59.86
2022-11-14T22:05:58.569Z,60.05
2022-11-14T22:09:02.967Z,59.86
2022-11-14T22:12:07.876Z,59.81
2022-11-14T22:15:11.636Z,59.84
2022-11-14T22:18:15.668Z,59.83
2022-11-14T22:21:19.994Z,59.91
2022-11-14T22:24:24.360Z,59.71
2022-11-14T22:27:28.650Z,59.65
2022-11-14T22:30:32.874Z,59.85
2022-11-14T22:33:45.564Z,59.91
2022-11-14T22:36:50.447Z,59.77
2022-11-14T22:39:54.696Z,59.58
2022-11-14T22:43:00.581Z,59.78
2022-11-14T22:46:05.049Z,59.71
2022-11-14T22:49:08.961Z,59.68
2022-11-14T22:52:13.059Z,59.61
2022-11-14T22:55:18.388Z,59.61
2022-11-14T22:58:23.279Z,59.57
2022-11-14T23:01:32.546Z,59.59
2022-11-14T23:04:36.577Z,59.55
2022-11-14T23:07:40.721Z,59.63
2022-11-14T23:10:46.255Z,59.59
2022-11-14T23:13:52.637Z,59.55
2022-11-14T23:16:56.624Z,59.52
2022-11-14T23:20:00.848Z,59.48
2022-11-14T23:23:04.981Z,59.43
2022-11-14T23:26:12.287Z,59.46
2022-11-14T23:29:16.617Z,59.46
2022-11-14T23:32:20.792Z,59.46
2022-11-14T23:35:24.977Z,59.40
2022-11-14T23:38:31.919Z,59.45
2022-11-14T23:41:35.734Z,59.41
2022-11-14T23:44:39.930Z,59.48
2022-11-14T23:47:44.173Z,59.34
2022-11-14T23:50:56.159Z,59.34
2022-11-14T23:54:00.015Z,59.33
2022-11-14T23:57:04.724Z,59.28
